Southington, CT (06489)

10:05 PM EST on December 09, 2016 (GMT -0500)
Farmstead Apartments | | Change Station

Elev 223 ft 41.61 °N, 72.88 °W | Updated 2 seconds ago

Clear
Clear
25.2 °F
Feels Like 25 °F
N
1.0
Wind Variable Wind from NW

Today
High -- | Low -- °F
--% Chance of Precip.
Yesterday
High -- | Low -- °F
Precip. -- in
Pressure 30.24 in
Visibility 10.0 miles
Clouds Clear
Windchill 25 °F
Dew Point 12 °F
Humidity 59%
Rainfall 0.00 in
Snow Depth Not available.
7:06 AM 4:21 PM
Waxing Gibbous, 79% visible
METAR KMMK 100253Z AUTO 31010G19KT 10SM CLR M02/M12 A3024 RMK AO2 SLP240 T10171122 51014 TSNO
Pressure 30.24 in
Visibility 10.0 miles
Clouds Clear
Windchill 25 °F
Dew Point 12 °F
Humidity 59%
Rainfall 0.00 in
Snow Depth Not available.
7:06 AM 4:21 PM
Waxing Gibbous, 79% visible
METAR KMMK 100253Z AUTO 31010G19KT 10SM CLR M02/M12 A3024 RMK AO2 SLP240 T10171122 51014 TSNO

10-Day Weather Forecast

Almanac

Astronomy

Dec. 09, 2016 Rise Set
Actual Time
Civil Twilight
Nautical Twilight
Astronomical Twilight
Moon
Length of Visible Light
Length of Day
Tomorrow will be .
, % of the Moon is Illuminated

Today's Extremes

State Highs State Lows

Community

WunderPhotos

Upload Photos

1,956,532 photos uploaded!

WunderBlog® & News

Nearby

Air Quality

  Air Quality AQ Index Pollutant
Not available.

Snow Depth

Station Depth Elevation

Earthquake Activity

City Distance Mag. Time & Date
Minimum magnitude displayed is 2.5.

Coastal Water Temperatures

Place Temperature

Stations

Nearby Weather Stations

Station Location Temp. Windchill Dew Point Humidity Wind Precip. Elev Updated Type
                   

Watches & Warnings

There are currently no watches in effect.